createdAt,value
2018-09-11T00:00:37.152Z,3.80
2018-09-11T00:03:06.511Z,4.60
2018-09-11T00:05:35.876Z,4.47
2018-09-11T00:08:05.158Z,5.00
2018-09-11T00:10:34.561Z,4.23
2018-09-11T00:13:03.864Z,4.47
2018-09-11T00:15:33.199Z,4.20
2018-09-11T00:18:02.683Z,4.20
2018-09-11T00:20:31.987Z,3.63
2018-09-11T00:23:01.359Z,4.40
2018-09-11T00:25:30.619Z,4.40
2018-09-11T00:27:59.894Z,4.53
2018-09-11T00:30:29.199Z,4.73
2018-09-11T00:32:58.483Z,3.80
2018-09-11T00:35:27.756Z,4.97
2018-09-11T00:37:57.023Z,4.13
2018-09-11T00:40:26.381Z,4.67
2018-09-11T00:42:55.649Z,4.30
2018-09-11T00:45:24.952Z,4.40
2018-09-11T00:47:54.163Z,4.40
2018-09-11T00:50:24.270Z,4.27
2018-09-11T00:52:53.503Z,4.40
2018-09-11T00:55:22.829Z,4.80
2018-09-11T00:57:52.195Z,4.83
2018-09-11T01:00:21.606Z,4.70
2018-09-11T01:02:50.958Z,4.00
2018-09-11T01:05:20.284Z,4.30
2018-09-11T01:07:49.678Z,4.17
2018-09-11T01:10:18.941Z,4.50
2018-09-11T01:12:48.224Z,4.17
2018-09-11T01:15:17.476Z,3.90
2018-09-11T01:17:46.780Z,4.37
2018-09-11T01:20:16.035Z,4.27
2018-09-11T01:22:45.388Z,4.30
2018-09-11T01:25:14.669Z,4.80
2018-09-11T01:27:43.907Z,5.13
2018-09-11T01:30:17.372Z,4.13
2018-09-11T01:32:46.886Z,4.83
2018-09-11T01:35:16.262Z,4.90
2018-09-11T01:37:45.524Z,4.33
2018-09-11T01:40:15.033Z,4.43
2018-09-11T01:42:44.312Z,4.27
2018-09-11T01:45:13.607Z,4.30
2018-09-11T01:47:42.903Z,4.57
2018-09-11T01:50:12.206Z,3.80
2018-09-11T01:52:41.591Z,3.97
2018-09-11T01:55:10.839Z,4.50
2018-09-11T01:57:40.096Z,4.00
2018-09-11T02:00:17.243Z,4.23
2018-09-11T02:02:47.255Z,4.57
2018-09-11T02:05:16.968Z,4.40
2018-09-11T02:07:49.441Z,3.87
2018-09-11T02:10:18.737Z,4.50
2018-09-11T02:12:48.004Z,4.50
2018-09-11T02:15:17.432Z,4.17
2018-09-11T02:17:46.705Z,4.20
2018-09-11T02:20:16.187Z,4.37
2018-09-11T02:22:45.708Z,4.60
2018-09-11T02:25:15.037Z,4.87
2018-09-11T02:27:44.313Z,5.10
2018-09-11T02:30:13.592Z,4.90
2018-09-11T02:32:43.727Z,4.63
2018-09-11T02:35:12.984Z,4.47
2018-09-11T02:37:42.312Z,4.17
2018-09-11T02:40:11.616Z,4.00
2018-09-11T02:42:40.952Z,4.33
2018-09-11T02:45:10.250Z,3.77
2018-09-11T02:47:39.700Z,4.50
2018-09-11T02:50:09.186Z,4.10
2018-09-11T02:52:38.701Z,4.20
2018-09-11T02:55:08.815Z,4.43
2018-09-11T02:57:38.081Z,5.13
2018-09-11T03:00:07.535Z,4.53
2018-09-11T03:02:36.872Z,4.50
2018-09-11T03:05:06.312Z,3.93
2018-09-11T03:07:35.704Z,4.80
2018-09-11T03:10:05.112Z,5.03
2018-09-11T03:12:34.387Z,4.77
2018-09-11T03:15:03.719Z,4.70
2018-09-11T03:17:32.951Z,5.00
2018-09-11T03:20:02.724Z,4.47
2018-09-11T03:22:32.089Z,4.57
2018-09-11T03:25:01.344Z,4.60
2018-09-11T03:27:30.629Z,5.30
2018-09-11T03:29:59.858Z,5.00
2018-09-11T03:32:29.675Z,4.60
2018-09-11T03:34:59.012Z,4.80
2018-09-11T03:37:29.874Z,5.00
2018-09-11T03:39:59.167Z,5.27
2018-09-11T03:42:28.466Z,5.17
2018-09-11T03:44:57.735Z,4.90
2018-09-11T03:47:27.088Z,4.33
2018-09-11T03:49:56.379Z,4.40
2018-09-11T03:52:25.649Z,4.40
2018-09-11T03:54:54.959Z,5.30
2018-09-11T03:57:24.355Z,4.63
2018-09-11T03:59:53.743Z,5.17
2018-09-11T04:02:23.080Z,5.50
2018-09-11T04:04:52.366Z,5.47
2018-09-11T04:07:21.699Z,4.90
2018-09-11T04:09:50.950Z,4.90
2018-09-11T04:12:20.252Z,4.33
2018-09-11T04:14:49.588Z,4.73
2018-09-11T04:17:18.928Z,5.07
2018-09-11T04:19:48.212Z,5.00
2018-09-11T04:22:17.518Z,5.37
2018-09-11T04:24:46.897Z,6.33
2018-09-11T04:27:17.325Z,5.80
2018-09-11T04:29:46.618Z,5.00
2018-09-11T04:32:16.101Z,5.87
2018-09-11T04:34:47.315Z,4.80
2018-09-11T04:37:18.325Z,5.30
2018-09-11T04:39:48.109Z,5.10
2018-09-11T04:42:19.204Z,5.20
2018-09-11T04:44:49.100Z,5.07
2018-09-11T04:47:21.591Z,5.10
2018-09-11T04:49:51.182Z,5.30
2018-09-11T04:52:22.760Z,5.50
2018-09-11T04:54:53.965Z,5.73
2018-09-11T04:57:23.781Z,5.90
2018-09-11T04:59:53.412Z,5.57
2018-09-11T05:02:24.324Z,5.30
2018-09-11T05:04:54.563Z,5.30
2018-09-11T05:07:25.948Z,5.40
2018-09-11T05:09:56.587Z,5.77
2018-09-11T05:12:27.163Z,5.93
2018-09-11T05:14:57.301Z,5.40
2018-09-11T05:17:27.533Z,6.10
2018-09-11T05:22:32.943Z,4.73
2018-09-11T05:25:03.204Z,6.07
2018-09-11T05:27:33.218Z,5.20
2018-09-11T05:35:12.410Z,5.63
2018-09-11T05:37:42.900Z,6.00
2018-09-11T05:40:12.528Z,5.67
2018-09-11T05:42:42.940Z,5.10
2018-09-11T05:45:13.235Z,5.10
2018-09-11T05:47:43.768Z,5.90
2018-09-11T05:50:14.011Z,5.17
2018-09-11T05:52:44.727Z,6.00
2018-09-11T05:55:14.659Z,6.13
2018-09-11T05:57:44.006Z,6.00
2018-09-11T06:00:13.795Z,4.97
2018-09-11T06:02:45.923Z,4.77
2018-09-11T06:05:15.919Z,4.97
2018-09-11T06:07:46.779Z,4.80
2018-09-11T06:10:16.534Z,5.20
2018-09-11T06:12:45.856Z,4.87
2018-09-11T06:15:16.321Z,4.70
2018-09-11T06:17:46.116Z,5.40
2018-09-11T06:20:17.008Z,5.00
2018-09-11T06:22:47.126Z,5.67
2018-09-11T06:25:16.961Z,5.47
2018-09-11T06:27:47.297Z,4.83
2018-09-11T06:30:18.361Z,4.80
2018-09-11T06:32:49.349Z,5.30
2018-09-11T06:35:19.211Z,5.30
2018-09-11T06:37:48.749Z,4.63
2018-09-11T06:40:18.191Z,4.60
2018-09-11T06:42:47.571Z,5.30
2018-09-11T06:45:17.584Z,4.47
2018-09-11T06:47:47.400Z,5.87
2018-09-11T06:50:16.733Z,6.50
2018-09-11T06:52:46.083Z,4.70
2018-09-11T06:55:15.766Z,4.27
2018-09-11T06:57:44.998Z,4.70
2018-09-11T07:00:14.363Z,4.40
2018-09-11T07:02:43.631Z,4.97
2018-09-11T07:05:13.030Z,4.57
2018-09-11T07:07:42.422Z,4.93
2018-09-11T07:10:11.952Z,5.10
2018-09-11T07:12:41.375Z,4.87
2018-09-11T07:15:10.707Z,5.27
2018-09-11T07:17:40.104Z,5.30
2018-09-11T07:20:10.257Z,5.40
2018-09-11T07:22:39.458Z,4.63
2018-09-11T07:25:08.892Z,4.73
2018-09-11T07:27:38.337Z,4.90
2018-09-11T07:30:07.785Z,4.97
2018-09-11T07:32:37.778Z,4.90
2018-09-11T07:35:08.657Z,5.17
2018-09-11T07:37:38.374Z,4.73
2018-09-11T07:40:08.543Z,5.70
2018-09-11T07:43:02.487Z,4.87
2018-09-11T07:45:36.866Z,5.07
2018-09-11T07:48:09.539Z,4.77
2018-09-11T07:50:39.981Z,5.33
2018-09-11T07:53:14.194Z,5.23
2018-09-11T07:55:45.088Z,4.33
2018-09-11T07:58:16.780Z,5.07
2018-09-11T08:00:47.008Z,4.27
2018-09-11T08:06:27.063Z,4.50
2018-09-11T08:08:57.013Z,4.37
2018-09-11T08:11:26.440Z,4.90
2018-09-11T08:13:56.036Z,4.47
2018-09-11T08:16:26.026Z,4.50
2018-09-11T08:18:56.143Z,4.50
2018-09-11T08:21:25.955Z,4.37
2018-09-11T08:23:55.398Z,4.70
2018-09-11T08:26:24.719Z,4.30
2018-09-11T08:28:54.151Z,4.70
2018-09-11T08:31:23.428Z,4.80
2018-09-11T08:33:52.696Z,4.60
2018-09-11T08:36:22.161Z,4.30
2018-09-11T08:38:51.430Z,4.93
2018-09-11T08:41:20.706Z,4.60
2018-09-11T08:43:50.687Z,5.00
2018-09-11T08:46:20.001Z,4.90
2018-09-11T08:48:49.383Z,4.60
2018-09-11T08:51:27.194Z,4.40
2018-09-11T08:53:56.985Z,4.30
2018-09-11T08:56:26.359Z,4.13
2018-09-11T08:58:55.838Z,4.07
2018-09-11T09:01:25.192Z,4.47
2018-09-11T09:03:54.604Z,4.10
2018-09-11T09:06:24.215Z,4.50
2018-09-11T09:08:54.747Z,4.43
2018-09-11T09:11:26.642Z,4.27
2018-09-11T09:16:57.517Z,4.70
2018-09-11T09:25:32.566Z,4.40
2018-09-11T09:31:48.425Z,4.33
2018-09-11T09:34:22.576Z,4.70
2018-09-11T09:36:55.427Z,5.07
2018-09-11T09:46:56.480Z,5.13
2018-09-11T10:35:24.734Z,4.67
2018-09-11T10:38:07.358Z,4.83
2018-09-11T10:40:37.895Z,4.50
2018-09-11T10:43:09.439Z,4.00
2018-09-11T10:45:38.678Z,3.93
2018-09-11T10:48:07.889Z,3.73
2018-09-11T10:50:37.149Z,5.13
2018-09-11T10:53:06.485Z,4.47
2018-09-11T10:55:35.647Z,4.57
2018-09-11T10:58:04.946Z,4.07
2018-09-11T11:00:34.260Z,4.30
2018-09-11T11:03:03.853Z,4.87
2018-09-11T11:05:33.468Z,4.33
2018-09-11T11:08:02.769Z,4.37
2018-09-11T11:10:32.165Z,3.70
2018-09-11T11:13:01.906Z,4.23
2018-09-11T11:15:31.323Z,3.70
2018-09-11T11:18:00.726Z,3.70
2018-09-11T11:20:30.079Z,4.27
2018-09-11T11:22:59.394Z,4.33
2018-09-11T11:25:28.736Z,4.50
2018-09-11T11:27:58.020Z,4.30
2018-09-11T11:30:27.342Z,4.10
2018-09-11T11:32:56.671Z,4.17
2018-09-11T11:35:25.998Z,4.03
2018-09-11T11:37:55.237Z,3.97
2018-09-11T11:40:24.619Z,3.67
2018-09-11T11:42:53.884Z,3.80
2018-09-11T11:45:23.206Z,3.83
2018-09-11T11:47:52.517Z,3.87
2018-09-11T11:50:21.803Z,4.73
2018-09-11T11:52:51.119Z,4.13
2018-09-11T11:55:20.445Z,3.30
2018-09-11T11:57:49.736Z,3.80
2018-09-11T12:00:19.058Z,4.40
2018-09-11T12:02:49.044Z,3.80
2018-09-11T12:05:18.535Z,4.20
2018-09-11T12:07:47.864Z,3.70
2018-09-11T12:10:17.386Z,4.20
2018-09-11T12:12:46.712Z,4.10
2018-09-11T12:15:16.117Z,3.73
2018-09-11T12:17:45.440Z,3.80
2018-09-11T12:20:14.902Z,4.13
2018-09-11T12:22:44.257Z,4.00
2018-09-11T12:25:13.596Z,3.83
2018-09-11T12:27:43.068Z,3.43
2018-09-11T12:30:12.373Z,4.30
2018-09-11T12:32:41.656Z,3.63
2018-09-11T12:35:11.012Z,4.10
2018-09-11T12:37:40.462Z,3.80
2018-09-11T12:40:09.784Z,3.70
2018-09-11T12:42:39.123Z,3.83
2018-09-11T12:45:08.502Z,4.20
2018-09-11T12:47:38.123Z,4.50
2018-09-11T12:50:07.288Z,4.07
2018-09-11T12:52:36.641Z,4.00
2018-09-11T12:55:06.014Z,4.30
2018-09-11T12:57:35.360Z,4.17
2018-09-11T13:00:04.782Z,3.97
2018-09-11T13:02:34.127Z,3.77
2018-09-11T13:05:03.472Z,4.10
2018-09-11T13:07:32.821Z,4.60
2018-09-11T13:10:02.173Z,4.40
2018-09-11T13:12:31.501Z,4.67
2018-09-11T13:15:00.784Z,4.50
2018-09-11T13:17:30.040Z,3.80
2018-09-11T13:19:59.320Z,3.73
2018-09-11T13:22:28.505Z,4.30
2018-09-11T13:24:58.675Z,4.33
2018-09-11T13:27:27.890Z,4.00
2018-09-11T13:29:57.192Z,4.10
2018-09-11T13:32:26.395Z,4.17
2018-09-11T13:34:55.576Z,4.17
2018-09-11T13:37:24.796Z,3.97
2018-09-11T13:39:54.019Z,4.30
2018-09-11T13:42:23.291Z,3.17
2018-09-11T13:44:52.524Z,3.33
2018-09-11T13:47:21.857Z,4.20
2018-09-11T13:49:50.982Z,4.37
2018-09-11T13:52:20.455Z,3.60
2018-09-11T13:54:49.677Z,4.40
2018-09-11T13:57:18.923Z,3.90
2018-09-11T13:59:48.579Z,3.80
2018-09-11T14:02:17.776Z,4.10
2018-09-11T14:04:47.307Z,3.80
2018-09-11T14:07:16.541Z,3.30
2018-09-11T14:09:45.814Z,4.30
2018-09-11T14:12:15.483Z,3.50
2018-09-11T14:14:44.788Z,3.47
2018-09-11T14:17:14.023Z,4.07
2018-09-11T14:19:43.282Z,3.90
2018-09-11T14:22:12.598Z,3.70
2018-09-11T14:24:41.896Z,3.53
2018-09-11T14:27:11.156Z,3.53
2018-09-11T14:29:40.381Z,4.10
2018-09-11T14:32:09.731Z,4.00
2018-09-11T14:34:39.130Z,4.37
2018-09-11T14:37:08.344Z,3.60
2018-09-11T14:39:37.576Z,3.97
2018-09-11T14:42:06.931Z,3.40
2018-09-11T14:44:36.497Z,3.87
2018-09-11T14:47:06.256Z,3.90
2018-09-11T14:49:35.752Z,4.10
2018-09-11T14:52:05.238Z,4.03
2018-09-11T14:54:34.490Z,3.87
2018-09-11T14:57:03.778Z,3.80
2018-09-11T14:59:33.180Z,4.00
2018-09-11T15:02:02.495Z,4.60
2018-09-11T15:04:31.773Z,4.20
2018-09-11T15:07:01.045Z,4.20
2018-09-11T15:12:03.834Z,4.27
2018-09-11T15:14:33.193Z,3.93
2018-09-11T15:17:02.479Z,3.37
2018-09-11T15:19:31.774Z,4.23
2018-09-11T15:22:01.085Z,3.53
2018-09-11T15:24:30.343Z,4.60
2018-09-11T15:26:59.720Z,4.23
2018-09-11T15:29:29.038Z,4.13
2018-09-11T15:31:58.375Z,3.73
2018-09-11T15:34:27.832Z,3.53
2018-09-11T15:36:57.704Z,4.30
2018-09-11T15:39:27.601Z,3.60
2018-09-11T15:41:57.019Z,4.60
2018-09-11T15:44:26.620Z,3.67
2018-09-11T15:46:56.169Z,3.80
2018-09-11T15:49:25.564Z,3.43
2018-09-11T15:51:54.851Z,3.87
2018-09-11T15:54:24.168Z,3.97
2018-09-11T15:56:53.428Z,3.37
2018-09-11T15:59:22.748Z,3.30
2018-09-11T16:01:51.988Z,3.53
2018-09-11T16:04:21.337Z,3.90
2018-09-11T16:06:50.743Z,4.10
2018-09-11T16:09:20.220Z,3.67
2018-09-11T16:11:49.515Z,4.17
2018-09-11T16:14:18.827Z,3.73
2018-09-11T16:16:48.751Z,3.77
2018-09-11T16:19:18.012Z,3.50
2018-09-11T16:21:47.341Z,3.30
2018-09-11T16:24:16.588Z,3.50
2018-09-11T16:26:45.946Z,3.10
2018-09-11T16:29:15.188Z,3.43
2018-09-11T16:31:44.512Z,3.83
2018-09-11T16:34:14.159Z,3.10
2018-09-11T16:36:43.782Z,4.07
2018-09-11T16:39:14.877Z,4.77
2018-09-11T16:41:44.202Z,4.67
2018-09-11T16:44:13.493Z,4.07
2018-09-11T16:46:42.814Z,4.47
2018-09-11T16:49:12.604Z,5.37
2018-09-11T16:51:41.863Z,4.50
2018-09-11T16:54:11.115Z,4.20
2018-09-11T16:56:40.397Z,3.87
2018-09-11T16:59:09.703Z,3.50
2018-09-11T17:01:39.000Z,3.87
2018-09-11T17:04:08.355Z,3.70
2018-09-11T17:06:37.711Z,4.17
2018-09-11T17:09:09.329Z,4.20
2018-09-11T17:11:38.680Z,3.53
2018-09-11T17:14:08.076Z,4.03
2018-09-11T17:16:37.452Z,4.13
2018-09-11T17:19:06.795Z,4.10
2018-09-11T17:21:36.115Z,3.67
2018-09-11T17:24:05.440Z,3.73
2018-09-11T17:26:34.776Z,4.80
2018-09-11T17:29:04.149Z,4.70
2018-09-11T17:31:33.563Z,4.90
2018-09-11T17:34:02.830Z,5.17
2018-09-11T17:36:32.232Z,7.13
2018-09-11T17:39:01.627Z,6.43
2018-09-11T17:41:31.356Z,6.60
2018-09-11T17:44:00.723Z,5.73
2018-09-11T17:46:30.939Z,5.90
2018-09-11T17:49:00.634Z,5.30
2018-09-11T17:51:30.061Z,5.60
2018-09-11T17:53:59.557Z,5.30
2018-09-11T17:56:29.193Z,5.67
2018-09-11T17:58:58.690Z,5.53
2018-09-11T18:01:29.734Z,4.97
2018-09-11T18:04:00.588Z,4.70
2018-09-11T18:06:30.732Z,5.57
2018-09-11T18:09:00.471Z,5.63
2018-09-11T18:11:30.190Z,4.87
2018-09-11T18:13:59.977Z,5.20
2018-09-11T18:16:29.695Z,6.70
2018-09-11T18:18:59.408Z,6.27
2018-09-11T18:21:29.489Z,6.20
2018-09-11T18:23:59.183Z,5.70
2018-09-11T18:26:28.811Z,5.83
2018-09-11T18:28:58.502Z,7.70
2018-09-11T18:31:28.051Z,6.70
2018-09-11T18:33:57.731Z,8.57
2018-09-11T18:36:27.141Z,8.50
2018-09-11T18:38:56.881Z,9.80
2018-09-11T18:41:26.562Z,9.10
2018-09-11T18:43:56.172Z,7.30
2018-09-11T18:46:25.810Z,7.90
2018-09-11T18:51:33.543Z,7.27
2018-09-11T18:54:03.243Z,6.80
2018-09-11T18:56:33.529Z,7.60
2018-09-11T18:59:03.194Z,7.73
2018-09-11T19:01:32.782Z,8.70
2018-09-11T19:04:02.472Z,8.10
2018-09-11T19:06:32.049Z,8.10
2018-09-11T19:09:01.799Z,7.30
2018-09-11T19:11:31.561Z,7.10
2018-09-11T19:14:01.504Z,6.67
2018-09-11T19:16:31.289Z,7.17
2018-09-11T19:19:01.018Z,8.17
2018-09-11T19:21:37.660Z,6.60
2018-09-11T19:26:48.951Z,7.33
2018-09-11T19:29:23.239Z,7.20
2018-09-11T19:31:55.418Z,6.43
2018-09-11T19:34:25.315Z,7.43
2018-09-11T19:36:55.163Z,6.07
2018-09-11T19:39:24.837Z,7.10
2018-09-11T19:41:56.758Z,6.93
2018-09-11T19:44:26.699Z,8.40
2018-09-11T19:46:56.147Z,8.70
2018-09-11T19:49:25.619Z,8.67
2018-09-11T19:51:54.971Z,7.60
2018-09-11T19:54:25.618Z,6.73
2018-09-11T19:56:55.291Z,7.40
2018-09-11T19:59:26.816Z,7.93
2018-09-11T20:01:56.264Z,7.87
2018-09-11T20:04:25.606Z,8.50
2018-09-11T20:06:55.273Z,6.53
2018-09-11T20:09:25.016Z,8.70
2018-09-11T20:11:55.265Z,8.20
2018-09-11T20:14:27.496Z,7.70
2018-09-11T20:16:56.853Z,7.70
2018-09-11T20:19:26.562Z,7.40
2018-09-11T20:21:56.505Z,8.80
2018-09-11T20:24:27.573Z,8.00
2018-09-11T20:26:57.546Z,7.60
2018-09-11T20:29:27.614Z,7.60
2018-09-11T20:31:57.667Z,8.00
2018-09-11T20:34:28.676Z,8.23
2018-09-11T20:37:00.045Z,8.80
2018-09-11T20:39:30.008Z,8.50
2018-09-11T20:41:59.811Z,8.47
2018-09-11T20:44:29.880Z,8.80
2018-09-11T20:47:00.089Z,8.40
2018-09-11T20:49:29.697Z,7.87
2018-09-11T20:51:59.390Z,8.10
2018-09-11T20:54:36.884Z,7.70
2018-09-11T20:57:06.885Z,8.50
2018-09-11T20:59:36.773Z,8.70
2018-09-11T21:02:06.930Z,8.00
2018-09-11T21:04:36.886Z,8.87
2018-09-11T21:07:06.893Z,8.97
2018-09-11T21:09:36.539Z,8.70
2018-09-11T21:12:06.155Z,9.03
2018-09-11T21:14:35.884Z,8.67
2018-09-11T21:17:05.666Z,9.53
2018-09-11T21:19:36.932Z,9.70
2018-09-11T21:22:06.627Z,9.77
2018-09-11T21:24:36.150Z,9.30
2018-09-11T21:27:05.807Z,8.60
2018-09-11T21:29:35.514Z,8.67
2018-09-11T21:32:04.996Z,8.70
2018-09-11T21:34:34.632Z,8.90
2018-09-11T21:37:05.153Z,8.30
2018-09-11T21:39:34.728Z,8.87
2018-09-11T21:42:04.469Z,8.83
2018-09-11T21:44:33.795Z,8.60
2018-09-11T21:47:03.259Z,8.90
2018-09-11T21:49:32.555Z,9.53
2018-09-11T21:52:02.251Z,9.23
2018-09-11T21:54:31.699Z,7.90
2018-09-11T21:57:01.040Z,9.00
2018-09-11T21:59:30.471Z,9.50
2018-09-11T22:02:01.928Z,9.40
2018-09-11T22:04:31.209Z,8.17
2018-09-11T22:07:00.786Z,9.10
2018-09-11T22:09:30.091Z,9.17
2018-09-11T22:11:59.467Z,9.87
2018-09-11T22:14:29.015Z,9.33
2018-09-11T22:16:58.500Z,8.90
2018-09-11T22:19:27.993Z,8.60
2018-09-11T22:21:57.267Z,9.77
2018-09-11T22:24:26.527Z,9.50
2018-09-11T22:26:55.774Z,9.97
2018-09-11T22:29:25.569Z,10.47
2018-09-11T22:31:54.808Z,11.07
2018-09-11T22:34:24.055Z,11.37
2018-09-11T22:36:53.350Z,9.40
2018-09-11T22:39:22.872Z,9.87
2018-09-11T22:41:52.208Z,9.30
2018-09-11T22:44:21.628Z,9.00
2018-09-11T22:46:51.271Z,9.07
2018-09-11T22:49:20.550Z,10.03
2018-09-11T22:51:49.832Z,9.73
2018-09-11T22:54:19.557Z,8.80
2018-09-11T22:56:48.909Z,9.37
2018-09-11T22:59:18.242Z,9.30
2018-09-11T23:01:47.644Z,9.77
2018-09-11T23:04:17.021Z,10.13
2018-09-11T23:06:46.300Z,9.00
2018-09-11T23:09:15.643Z,8.87
2018-09-11T23:11:45.336Z,9.30
2018-09-11T23:14:14.619Z,9.20
2018-09-11T23:16:44.033Z,9.07
2018-09-11T23:19:13.351Z,8.53
2018-09-11T23:21:42.747Z,9.33
2018-09-11T23:24:12.090Z,8.83
2018-09-11T23:26:43.743Z,9.60
2018-09-11T23:29:20.130Z,8.97
2018-09-11T23:31:51.033Z,8.40
2018-09-11T23:34:23.470Z,8.30
2018-09-11T23:36:59.204Z,10.07
2018-09-11T23:39:30.991Z,8.50
2018-09-11T23:42:02.749Z,8.80
2018-09-11T23:44:39.179Z,10.13
2018-09-11T23:47:08.689Z,8.33
2018-09-11T23:49:39.659Z,8.03
2018-09-11T23:52:11.541Z,9.57
2018-09-11T23:54:44.738Z,8.90
2018-09-11T23:57:14.034Z,9.00
2018-09-11T23:59:47.568Z,8.87
